createdAt,value
2023-02-25T00:01:51.333Z,60.04
2023-02-25T00:04:28.916Z,60.24
2023-02-25T00:06:56.500Z,60.66
2023-02-25T00:09:24.100Z,59.96
2023-02-25T00:11:53.084Z,60.15
2023-02-25T00:14:20.697Z,60.30
2023-02-25T00:16:50.265Z,60.14
2023-02-25T00:19:18.263Z,60.16
2023-02-25T00:21:45.911Z,60.00
2023-02-25T00:24:16.643Z,60.28
2023-02-25T00:26:44.680Z,59.94
2023-02-25T00:29:13.628Z,60.25
2023-02-25T00:31:41.905Z,60.47
2023-02-25T00:34:09.647Z,59.99
2023-02-25T00:36:37.287Z,60.19
2023-02-25T00:39:04.977Z,60.28
2023-02-25T00:41:32.826Z,60.31
2023-02-25T00:44:02.587Z,60.17
2023-02-25T00:46:32.583Z,60.30
2023-02-25T00:49:01.458Z,59.97
2023-02-25T00:51:32.356Z,60.15
2023-02-25T00:54:00.236Z,60.09
2023-02-25T00:56:28.491Z,60.11
2023-02-25T00:58:56.183Z,60.11
2023-02-25T01:01:27.103Z,59.93
2023-02-25T01:03:57.914Z,59.91
2023-02-25T01:06:26.612Z,60.23
2023-02-25T01:08:54.936Z,60.00
2023-02-25T01:11:27.605Z,60.32
2023-02-25T01:13:55.940Z,60.29
2023-02-25T01:16:26.520Z,60.29
2023-02-25T01:18:56.673Z,60.44
2023-02-25T01:21:27.169Z,60.39
2023-02-25T01:23:58.728Z,60.25
2023-02-25T01:26:27.438Z,60.36
2023-02-25T01:28:55.819Z,60.30
2023-02-25T01:31:29.180Z,60.45
2023-02-25T01:34:00.347Z,60.61
2023-02-25T01:36:28.782Z,60.33
2023-02-25T01:38:56.513Z,60.36
2023-02-25T01:41:24.732Z,60.30
2023-02-25T01:44:07.149Z,60.22
2023-02-25T01:46:35.210Z,60.28
2023-02-25T01:49:07.667Z,60.27
2023-02-25T01:51:36.389Z,60.61
2023-02-25T01:54:06.204Z,60.48
2023-02-25T01:56:35.661Z,60.33
2023-02-25T01:59:03.412Z,60.36
2023-02-25T02:01:35.422Z,60.47
2023-02-25T02:04:07.267Z,60.31
2023-02-25T02:06:37.671Z,60.55
2023-02-25T02:09:09.480Z,60.50
2023-02-25T02:11:37.119Z,60.46
2023-02-25T02:14:07.509Z,60.44
2023-02-25T02:16:53.149Z,60.33
2023-02-25T02:19:33.364Z,60.42
2023-02-25T02:22:09.172Z,60.49
2023-02-25T02:25:00.378Z,60.23
2023-02-25T02:27:36.492Z,60.25
2023-02-25T02:30:34.694Z,60.29
2023-02-25T02:33:10.517Z,60.41
2023-02-25T02:35:45.742Z,60.40
2023-02-25T02:38:20.851Z,60.33
2023-02-25T02:40:58.751Z,60.28
2023-02-25T02:43:37.632Z,60.90
2023-02-25T02:46:11.184Z,60.67
2023-02-25T02:48:45.150Z,60.83
2023-02-25T02:51:18.230Z,60.53
2023-02-25T02:53:50.789Z,60.88
2023-02-25T02:56:21.622Z,60.73
2023-02-25T02:58:54.281Z,60.64
2023-02-25T03:01:26.677Z,60.63
2023-02-25T03:04:00.793Z,60.59
2023-02-25T03:06:34.539Z,60.35
2023-02-25T03:09:06.984Z,60.62
2023-02-25T03:11:34.654Z,60.33
2023-02-25T03:14:02.609Z,60.64
2023-02-25T03:16:36.456Z,60.71
2023-02-25T03:19:09.736Z,60.53
2023-02-25T03:21:42.920Z,60.68
2023-02-25T03:24:17.666Z,60.29
2023-02-25T03:26:45.331Z,60.54
2023-02-25T03:29:17.464Z,60.88
2023-02-25T03:31:53.409Z,60.74
2023-02-25T03:34:26.565Z,60.69
2023-02-25T03:36:59.534Z,60.82
2023-02-25T03:39:31.645Z,60.56
2023-02-25T03:42:03.658Z,60.65
2023-02-25T03:44:34.279Z,60.58
2023-02-25T03:47:05.399Z,60.88
2023-02-25T03:49:38.970Z,60.42
2023-02-25T03:52:14.697Z,60.56
2023-02-25T03:54:42.342Z,60.68
2023-02-25T03:57:10.355Z,60.46
2023-02-25T03:59:38.008Z,60.56
2023-02-25T04:02:06.121Z,60.27
2023-02-25T04:04:35.164Z,60.32
2023-02-25T04:07:02.823Z,60.53
2023-02-25T04:09:30.407Z,60.42
2023-02-25T04:11:58.017Z,60.56
2023-02-25T04:14:25.872Z,60.63
2023-02-25T04:16:53.658Z,60.31
2023-02-25T04:19:21.264Z,60.80
2023-02-25T04:21:50.218Z,60.58
2023-02-25T04:24:17.999Z,60.71
2023-02-25T04:26:45.584Z,60.82
2023-02-25T04:29:13.185Z,60.58
2023-02-25T04:31:41.058Z,60.75
2023-02-25T04:34:08.719Z,60.73
2023-02-25T04:36:37.089Z,60.79
2023-02-25T04:39:06.597Z,60.65
2023-02-25T04:41:36.168Z,60.66
2023-02-25T04:44:05.161Z,60.57
2023-02-25T04:46:34.252Z,60.94
2023-02-25T04:49:02.128Z,60.83
2023-02-25T04:51:29.886Z,60.78
2023-02-25T04:53:57.539Z,60.61
2023-02-25T04:56:27.213Z,60.86
2023-02-25T04:58:54.935Z,60.70
2023-02-25T05:01:22.788Z,60.77
2023-02-25T05:03:50.473Z,60.81
2023-02-25T05:06:18.090Z,60.94
2023-02-25T05:08:45.689Z,60.84
2023-02-25T05:11:13.301Z,60.82
2023-02-25T05:13:42.254Z,60.80
2023-02-25T05:16:11.642Z,60.84
2023-02-25T05:18:39.572Z,60.78
2023-02-25T05:21:12.136Z,60.80
2023-02-25T05:23:39.796Z,60.72
2023-02-25T05:26:07.926Z,60.70
2023-02-25T05:28:35.642Z,60.70
2023-02-25T05:31:08.006Z,60.72
2023-02-25T05:33:37.279Z,60.62
2023-02-25T05:36:07.139Z,60.61
2023-02-25T05:38:35.214Z,60.79
2023-02-25T05:41:03.491Z,60.67
2023-02-25T05:43:31.114Z,60.48
2023-02-25T05:46:00.200Z,60.60
2023-02-25T05:48:29.169Z,60.48
2023-02-25T05:51:01.775Z,60.74
2023-02-25T05:53:29.558Z,60.68
2023-02-25T05:55:57.175Z,60.70
2023-02-25T05:58:25.268Z,60.82
2023-02-25T06:00:53.973Z,60.71
2023-02-25T06:03:21.625Z,60.64
2023-02-25T06:05:50.584Z,60.77
2023-02-25T06:08:18.227Z,60.72
2023-02-25T06:10:46.043Z,60.86
2023-02-25T06:13:13.622Z,60.76
2023-02-25T06:15:43.165Z,60.84
2023-02-25T06:18:11.285Z,60.58
2023-02-25T06:20:39.004Z,60.84
2023-02-25T06:23:08.098Z,60.50
2023-02-25T06:25:35.720Z,60.82
2023-02-25T06:28:04.684Z,60.94
2023-02-25T06:30:32.697Z,60.75
2023-02-25T06:33:00.409Z,60.89
2023-02-25T06:35:28.426Z,60.71
2023-02-25T06:37:57.826Z,60.89
2023-02-25T06:40:28.083Z,60.69
2023-02-25T06:42:55.711Z,61.08
2023-02-25T06:45:24.000Z,60.82
2023-02-25T06:47:51.629Z,60.82
2023-02-25T06:50:20.320Z,61.06
2023-02-25T06:52:47.919Z,60.98
2023-02-25T06:55:15.535Z,60.63
2023-02-25T06:57:44.499Z,60.41
2023-02-25T07:00:13.289Z,60.65
2023-02-25T07:02:40.922Z,60.77
2023-02-25T07:05:09.374Z,60.63
2023-02-25T07:07:36.957Z,60.97
2023-02-25T07:10:04.787Z,60.57
2023-02-25T07:12:33.012Z,60.57
2023-02-25T07:15:02.001Z,60.92
2023-02-25T07:17:29.624Z,60.63
2023-02-25T07:19:58.256Z,60.70
2023-02-25T07:22:26.072Z,60.79
2023-02-25T07:24:53.732Z,60.73
2023-02-25T07:27:21.375Z,60.78
2023-02-25T07:29:49.018Z,60.72
2023-02-25T07:32:18.115Z,60.90
2023-02-25T07:34:45.836Z,60.74
2023-02-25T07:37:13.716Z,60.75
2023-02-25T07:39:41.459Z,60.63
2023-02-25T07:42:09.110Z,60.84
2023-02-25T07:44:37.027Z,60.67
2023-02-25T07:47:04.711Z,60.88
2023-02-25T07:49:33.645Z,60.73
2023-02-25T07:52:01.787Z,60.89
2023-02-25T07:54:29.588Z,61.01
2023-02-25T07:56:57.388Z,60.89
2023-02-25T07:59:25.045Z,61.00
2023-02-25T08:01:52.655Z,60.74
2023-02-25T08:04:20.401Z,60.88
2023-02-25T08:06:49.761Z,60.87
2023-02-25T08:09:17.416Z,60.79
2023-02-25T08:11:45.277Z,61.04
2023-02-25T08:14:13.055Z,60.94
2023-02-25T08:16:40.848Z,60.80
2023-02-25T08:19:08.575Z,60.86
2023-02-25T08:21:37.397Z,60.75
2023-02-25T08:24:07.900Z,60.92
2023-02-25T08:26:35.592Z,60.92
2023-02-25T08:29:03.859Z,60.91
2023-02-25T08:31:31.672Z,61.06
2023-02-25T08:33:59.562Z,60.92
2023-02-25T08:36:29.166Z,60.93
2023-02-25T08:38:58.361Z,60.69
2023-02-25T08:41:28.750Z,61.03
2023-02-25T08:43:58.050Z,60.96
2023-02-25T08:46:28.610Z,60.81
2023-02-25T08:48:56.439Z,61.17
2023-02-25T08:51:33.783Z,60.82
2023-02-25T08:54:03.167Z,60.83
2023-02-25T08:56:32.472Z,61.14
2023-02-25T08:59:00.117Z,60.97
2023-02-25T09:01:40.936Z,60.68
2023-02-25T09:04:08.529Z,60.83
2023-02-25T09:06:36.103Z,60.75
2023-02-25T09:09:05.430Z,60.96
2023-02-25T09:11:34.396Z,60.87
2023-02-25T09:14:01.998Z,60.77
2023-02-25T09:16:30.008Z,61.01
2023-02-25T09:18:57.647Z,60.94
2023-02-25T09:21:25.715Z,60.82
2023-02-25T09:23:53.691Z,61.01
2023-02-25T09:26:22.458Z,61.02
2023-02-25T09:28:51.416Z,61.06
2023-02-25T09:31:19.676Z,60.83
2023-02-25T09:33:47.408Z,60.99
2023-02-25T09:36:17.327Z,61.24
2023-02-25T09:38:46.853Z,61.04
2023-02-25T09:41:26.314Z,61.00
2023-02-25T09:44:03.520Z,61.25
2023-02-25T09:46:33.291Z,61.03
2023-02-25T09:49:04.630Z,60.91
2023-02-25T09:51:35.968Z,61.36
2023-02-25T09:54:14.689Z,61.06
2023-02-25T09:56:42.585Z,61.56
2023-02-25T09:59:16.201Z,61.23
2023-02-25T10:01:50.124Z,61.13
2023-02-25T10:04:25.950Z,61.14
2023-02-25T10:06:55.977Z,61.18
2023-02-25T10:09:31.414Z,61.19
2023-02-25T10:12:09.938Z,60.90
2023-02-25T10:14:50.324Z,61.20
2023-02-25T10:17:28.113Z,61.13
2023-02-25T10:20:18.437Z,61.56
2023-02-25T10:22:52.726Z,61.10
2023-02-25T10:25:25.929Z,61.13
2023-02-25T10:28:00.773Z,60.99
2023-02-25T10:30:35.640Z,61.18
2023-02-25T10:33:09.658Z,60.99
2023-02-25T10:35:40.383Z,61.32
2023-02-25T10:38:08.218Z,61.05
2023-02-25T10:40:35.938Z,61.18
2023-02-25T10:43:18.068Z,61.12
2023-02-25T10:45:50.755Z,61.27
2023-02-25T10:48:21.710Z,61.40
2023-02-25T10:51:05.590Z,61.24
2023-02-25T10:53:34.006Z,61.41
2023-02-25T10:56:02.624Z,61.49
2023-02-25T10:58:38.233Z,61.37
2023-02-25T11:01:13.671Z,61.03
2023-02-25T11:03:48.848Z,61.29
2023-02-25T11:06:23.552Z,61.33
2023-02-25T11:08:52.228Z,61.62
2023-02-25T11:11:22.555Z,61.23
2023-02-25T11:14:01.422Z,61.09
2023-02-25T11:16:33.586Z,61.08
2023-02-25T11:19:03.362Z,61.19
2023-02-25T11:21:34.663Z,61.32
2023-02-25T11:24:05.744Z,61.31
2023-02-25T11:26:37.834Z,61.14
2023-02-25T11:29:10.141Z,61.39
2023-02-25T11:31:41.760Z,61.32
2023-02-25T11:34:16.886Z,61.40
2023-02-25T11:36:46.370Z,61.56
2023-02-25T11:39:21.910Z,61.08
2023-02-25T11:41:51.325Z,61.35
2023-02-25T11:44:26.856Z,61.30
2023-02-25T11:47:15.617Z,60.95
2023-02-25T11:50:00.535Z,61.25
2023-02-25T11:52:36.635Z,61.17
2023-02-25T11:55:19.027Z,61.31
2023-02-25T11:57:58.580Z,61.48
2023-02-25T12:00:33.350Z,61.29
2023-02-25T12:03:16.732Z,61.30
2023-02-25T12:05:53.316Z,61.38
2023-02-25T12:08:52.220Z,61.14
2023-02-25T12:11:48.543Z,61.16
2023-02-25T12:14:51.792Z,61.16
2023-02-25T12:18:00.843Z,61.36
2023-02-25T12:21:05.523Z,61.03
2023-02-25T12:24:19.703Z,61.02
2023-02-25T12:27:06.627Z,61.21
2023-02-25T12:29:55.896Z,61.09
2023-02-25T12:32:39.544Z,61.26
2023-02-25T12:35:44.641Z,61.30
2023-02-25T12:38:48.621Z,61.17
2023-02-25T12:41:30.679Z,61.47
2023-02-25T12:44:15.596Z,61.53
2023-02-25T12:47:06.877Z,61.38
2023-02-25T12:49:52.248Z,61.31
2023-02-25T12:52:35.457Z,61.33
2023-02-25T12:55:37.863Z,61.41
2023-02-25T12:58:26.769Z,61.55
2023-02-25T13:01:13.771Z,61.32
2023-02-25T13:04:01.474Z,61.20
2023-02-25T13:07:03.692Z,61.24
2023-02-25T13:09:52.016Z,61.23
2023-02-25T13:12:40.709Z,61.18
2023-02-25T13:15:15.177Z,61.29
2023-02-25T13:17:57.341Z,61.18
2023-02-25T13:20:40.705Z,61.04
2023-02-25T13:23:24.202Z,61.34
2023-02-25T13:26:07.738Z,61.22
2023-02-25T13:28:51.213Z,61.19
2023-02-25T13:31:31.513Z,61.17
2023-02-25T13:34:09.770Z,60.98
2023-02-25T13:36:55.107Z,61.20
2023-02-25T13:39:41.615Z,61.16
2023-02-25T13:42:28.311Z,61.15
2023-02-25T13:45:30.747Z,61.36
2023-02-25T13:48:15.815Z,61.40
2023-02-25T13:50:54.261Z,61.22
2023-02-25T13:53:41.651Z,61.26
2023-02-25T13:56:44.030Z,61.17
2023-02-25T13:59:23.374Z,61.14
2023-02-25T14:02:04.060Z,60.98
2023-02-25T14:04:50.619Z,61.07
2023-02-25T14:07:30.924Z,61.32
2023-02-25T14:10:13.431Z,61.63
2023-02-25T14:12:53.809Z,61.08
2023-02-25T14:15:33.401Z,61.52
2023-02-25T14:18:16.922Z,61.33
2023-02-25T14:20:56.681Z,61.30
2023-02-25T14:23:34.234Z,61.42
2023-02-25T14:26:19.738Z,61.55
2023-02-25T14:29:00.616Z,61.59
2023-02-25T14:31:35.494Z,61.34
2023-02-25T14:34:19.660Z,61.44
2023-02-25T14:37:05.492Z,61.60
2023-02-25T14:39:45.366Z,61.26
2023-02-25T14:42:26.845Z,61.31
2023-02-25T14:45:00.950Z,61.34
2023-02-25T14:47:32.763Z,61.06
2023-02-25T14:50:09.327Z,61.33
2023-02-25T14:52:58.531Z,61.32
2023-02-25T14:55:50.593Z,61.11
2023-02-25T14:58:46.929Z,61.09
2023-02-25T15:01:40.072Z,61.21
2023-02-25T15:04:31.293Z,61.16
2023-02-25T15:07:15.542Z,61.26
2023-02-25T15:10:17.870Z,61.04
2023-02-25T15:13:07.734Z,61.25
2023-02-25T15:15:47.343Z,61.31
2023-02-25T15:18:55.193Z,61.06
2023-02-25T15:21:44.964Z,61.31
2023-02-25T15:24:40.065Z,61.32
2023-02-25T15:27:49.364Z,61.22
2023-02-25T15:30:21.367Z,61.00
2023-02-25T15:33:17.321Z,61.35
2023-02-25T15:35:58.206Z,61.33
2023-02-25T15:38:46.081Z,61.55
2023-02-25T15:41:39.913Z,61.17
2023-02-25T15:44:37.160Z,61.50
2023-02-25T15:47:31.855Z,61.42
2023-02-25T15:50:00.428Z,61.47
2023-02-25T15:52:51.279Z,61.47
2023-02-25T15:55:31.126Z,61.32
2023-02-25T15:57:58.808Z,61.35
2023-02-25T16:01:03.122Z,61.53
2023-02-25T16:03:43.175Z,61.38
2023-02-25T16:06:17.484Z,61.33
2023-02-25T16:08:52.348Z,61.64
2023-02-25T16:11:25.791Z,61.21
2023-02-25T16:13:54.559Z,61.42
2023-02-25T16:16:23.901Z,61.35
2023-02-25T16:18:53.994Z,61.43
2023-02-25T16:21:27.366Z,61.36
2023-02-25T16:23:55.535Z,61.22
2023-02-25T16:26:31.805Z,61.40
2023-02-25T16:29:11.943Z,61.11
2023-02-25T16:31:47.779Z,61.36
2023-02-25T16:34:23.610Z,61.24
2023-02-25T16:37:05.845Z,61.35
2023-02-25T16:39:33.891Z,61.24
2023-02-25T16:42:04.684Z,61.09
2023-02-25T16:44:38.228Z,61.36
2023-02-25T16:47:15.777Z,61.41
2023-02-25T16:49:48.210Z,61.39
2023-02-25T16:52:19.196Z,61.44
2023-02-25T16:54:48.307Z,61.23
2023-02-25T16:57:21.955Z,61.58
2023-02-25T16:59:50.737Z,61.13
2023-02-25T17:02:24.741Z,61.30
2023-02-25T17:04:54.834Z,61.32
2023-02-25T17:07:27.649Z,61.27
2023-02-25T17:09:59.576Z,61.42
2023-02-25T17:12:31.407Z,61.30
2023-02-25T17:15:02.496Z,61.49
2023-02-25T17:17:33.984Z,61.30
2023-02-25T17:20:05.240Z,61.30
2023-02-25T17:22:35.263Z,61.53
2023-02-25T17:25:04.274Z,61.59
2023-02-25T17:27:32.261Z,61.53
2023-02-25T17:29:59.993Z,61.61
2023-02-25T17:32:29.502Z,61.44
2023-02-25T17:35:02.065Z,61.50
2023-02-25T17:37:32.922Z,61.67
2023-02-25T17:40:02.404Z,61.56
2023-02-25T17:42:35.434Z,61.61
2023-02-25T17:45:07.253Z,61.59
2023-02-25T17:47:37.110Z,61.42
2023-02-25T17:50:22.675Z,61.63
2023-02-25T17:52:51.675Z,61.59
2023-02-25T17:55:25.202Z,61.66
2023-02-25T17:57:54.779Z,61.79
2023-02-25T18:00:26.163Z,61.64
2023-02-25T18:03:21.860Z,61.58
2023-02-25T18:05:53.355Z,61.62
2023-02-25T18:08:23.876Z,61.53
2023-02-25T18:10:57.144Z,61.47
2023-02-25T18:13:37.079Z,61.59
2023-02-25T18:16:37.336Z,61.35
2023-02-25T18:19:23.560Z,61.52
2023-02-25T18:21:52.552Z,61.72
2023-02-25T18:24:32.973Z,61.74
2023-02-25T18:27:10.280Z,61.51
2023-02-25T18:29:37.869Z,61.35
2023-02-25T18:32:05.760Z,61.43
2023-02-25T18:34:33.485Z,61.57
2023-02-25T18:37:01.606Z,61.35
2023-02-25T18:39:30.612Z,61.81
2023-02-25T18:41:58.196Z,61.36
2023-02-25T18:44:25.788Z,61.78
2023-02-25T18:46:53.416Z,61.56
2023-02-25T18:49:21.071Z,61.72
2023-02-25T18:51:50.437Z,61.31
2023-02-25T18:54:18.270Z,61.54
2023-02-25T18:56:47.223Z,61.83
2023-02-25T18:59:14.872Z,61.65
2023-02-25T19:01:43.161Z,61.74
2023-02-25T19:04:15.854Z,61.49
2023-02-25T19:06:43.490Z,61.44
2023-02-25T19:09:11.444Z,61.35
2023-02-25T19:11:39.286Z,61.62
2023-02-25T19:14:08.531Z,61.63
2023-02-25T19:16:36.295Z,61.34
2023-02-25T19:19:04.068Z,61.54
2023-02-25T19:21:32.001Z,61.73
2023-02-25T19:23:59.643Z,61.61
2023-02-25T19:26:27.485Z,61.49
2023-02-25T19:28:55.211Z,61.53
2023-02-25T19:31:24.242Z,61.61
2023-02-25T19:33:51.840Z,61.49
2023-02-25T19:36:19.451Z,61.60
2023-02-25T19:38:47.066Z,61.53
2023-02-25T19:41:14.694Z,61.67
2023-02-25T19:43:42.271Z,61.58
2023-02-25T19:46:11.282Z,61.61
2023-02-25T19:48:40.292Z,61.81
2023-02-25T19:51:09.008Z,61.57
2023-02-25T19:53:36.990Z,63.13
2023-02-25T19:56:07.293Z,62.90
2023-02-25T19:58:35.010Z,62.85
2023-02-25T20:01:04.549Z,62.81
2023-02-25T20:03:32.261Z,62.84
2023-02-25T20:06:06.882Z,62.65
2023-02-25T20:08:35.665Z,62.64
2023-02-25T20:11:03.389Z,62.42
2023-02-25T20:13:31.200Z,62.12
2023-02-25T20:16:01.110Z,62.09
2023-02-25T20:18:28.850Z,62.01
2023-02-25T20:20:56.544Z,61.89
2023-02-25T20:23:25.472Z,62.00
2023-02-25T20:26:02.709Z,61.99
2023-02-25T20:28:30.306Z,61.67
2023-02-25T20:31:04.008Z,61.74
2023-02-25T20:33:31.616Z,61.94
2023-02-25T20:35:59.595Z,61.78
2023-02-25T20:38:34.808Z,61.69
2023-02-25T20:41:02.622Z,61.75
2023-02-25T20:43:30.557Z,61.71
2023-02-25T20:45:58.593Z,61.88
2023-02-25T20:48:29.202Z,61.83
2023-02-25T20:50:57.495Z,62.05
2023-02-25T20:53:25.725Z,61.62
2023-02-25T20:55:57.849Z,61.87
2023-02-25T20:58:25.543Z,61.75
2023-02-25T21:00:53.206Z,61.81
2023-02-25T21:03:20.779Z,61.78
2023-02-25T21:05:48.659Z,61.84
2023-02-25T21:08:16.243Z,61.65
2023-02-25T21:10:44.146Z,61.80
2023-02-25T21:13:15.667Z,61.48
2023-02-25T21:15:43.746Z,61.32
2023-02-25T21:18:11.355Z,61.40
2023-02-25T21:20:39.002Z,61.32
2023-02-25T21:23:06.677Z,61.22
2023-02-25T21:25:34.409Z,61.30
2023-02-25T21:28:02.034Z,61.07
2023-02-25T21:30:31.083Z,61.10
2023-02-25T21:32:59.159Z,60.83
2023-02-25T21:35:26.832Z,60.83
2023-02-25T21:37:54.480Z,60.81
2023-02-25T21:40:22.662Z,60.92
2023-02-25T21:42:51.214Z,60.62
2023-02-25T21:45:18.825Z,60.59
2023-02-25T21:47:47.906Z,60.69
2023-02-25T21:50:15.471Z,60.54
2023-02-25T21:52:43.155Z,60.50
2023-02-25T21:55:11.224Z,60.78
2023-02-25T21:57:39.362Z,60.69
2023-02-25T22:00:10.987Z,60.53
2023-02-25T22:02:38.735Z,60.99
2023-02-25T22:05:08.479Z,60.93
2023-02-25T22:07:36.120Z,60.70
2023-02-25T22:10:04.040Z,60.87
2023-02-25T22:12:31.652Z,60.90
2023-02-25T22:14:59.272Z,61.16
2023-02-25T22:17:26.835Z,61.34
2023-02-25T22:19:54.618Z,61.02
2023-02-25T22:22:23.585Z,61.18
2023-02-25T22:24:51.201Z,60.93
2023-02-25T22:27:18.780Z,61.09
2023-02-25T22:29:46.383Z,61.06
2023-02-25T22:32:14.101Z,61.15
2023-02-25T22:34:41.828Z,61.32
2023-02-25T22:37:09.411Z,62.76
2023-02-25T22:39:38.326Z,62.71
2023-02-25T22:42:06.073Z,63.44
2023-02-25T22:44:33.659Z,63.79
2023-02-25T22:47:01.667Z,63.89
2023-02-25T22:49:29.268Z,64.18
2023-02-25T22:51:56.894Z,64.34
2023-02-25T22:54:24.501Z,64.37
2023-02-25T22:56:53.595Z,64.35
2023-02-25T22:59:21.650Z,64.44
2023-02-25T23:01:49.240Z,64.54
2023-02-25T23:04:16.903Z,64.32
2023-02-25T23:06:45.524Z,64.04
2023-02-25T23:09:13.850Z,63.98
2023-02-25T23:11:43.017Z,64.02
2023-02-25T23:14:12.302Z,64.20
2023-02-25T23:16:42.381Z,63.99
2023-02-25T23:19:11.772Z,63.92
2023-02-25T23:21:39.447Z,64.14
2023-02-25T23:24:08.625Z,64.10
2023-02-25T23:26:39.383Z,63.88
2023-02-25T23:29:08.768Z,63.88
2023-02-25T23:31:39.758Z,63.79
2023-02-25T23:34:09.752Z,63.85
2023-02-25T23:36:37.827Z,63.84
2023-02-25T23:39:06.108Z,63.76
2023-02-25T23:41:35.699Z,63.80
2023-02-25T23:44:03.894Z,63.66
2023-02-25T23:46:32.635Z,63.61
2023-02-25T23:49:03.374Z,63.74
2023-02-25T23:51:31.151Z,63.59
2023-02-25T23:54:02.058Z,63.63
2023-02-25T23:56:31.117Z,63.25
2023-02-25T23:58:59.359Z,63.42
